Time;durP1;ratioP1;P1;durP2;ratioP2;P2;SDS_P1;SDS_P2;PMS_P1;PMS_P2;Temp;Humidity;BMP_temperature;BMP_pressure;BME280_temperature;BME280_humidity;BME280_pressure;Samples;Min_cycle;Max_cycle;Signal;HPM_P1;HPM_P2
2023/09/23 00:02:15;;;;;;;9.15;8.30;;;13.80;99.90;;;;;;6215033;23;20004;-84
2023/09/23 00:04:42;;;;;;;9.63;8.73;;;14.80;99.90;;;;;;6215113;23;20048;-84
2023/09/23 00:07:26;;;;;;;9.50;8.70;;;14.90;99.90;;;;;;6214979;23;20021;-84
2023/09/23 00:09:53;;;;;;;13.75;9.10;;;14.70;99.90;;;;;;6214855;23;19997;-82
2023/09/23 00:12:22;;;;;;;9.73;8.88;;;14.20;99.90;;;;;;6215607;23;20051;-85
2023/09/23 00:14:48;;;;;;;9.65;8.73;;;15.20;99.90;;;;;;6214243;23;20366;-83
2023/09/23 00:17:29;;;;;;;9.35;8.40;;;13.80;99.90;;;;;;6218177;22;20452;-83
2023/09/23 00:19:56;;;;;;;10.70;8.90;;;14.90;99.90;;;;;;6244741;23;20344;-83
2023/09/23 00:22:21;;;;;;;10.25;9.02;;;14.90;99.90;;;;;;6243777;23;20039;-84
2023/09/23 00:24:47;;;;;;;10.18;9.27;;;14.70;99.90;;;;;;6245350;23;20003;-84
2023/09/23 00:27:13;;;;;;;12.65;9.75;;;15.10;99.90;;;;;;6245511;23;20015;-83
2023/09/23 00:29:39;;;;;;;10.45;9.40;;;13.90;99.90;;;;;;6244140;23;20459;-83
2023/09/23 00:32:04;;;;;;;10.63;9.60;;;14.00;99.90;;;;;;6245794;23;20000;-84
2023/09/23 00:34:30;;;;;;;11.98;9.80;;;13.90;99.90;;;;;;6244874;23;20328;-83
2023/09/23 00:36:56;;;;;;;11.35;10.18;;;13.90;99.90;;;;;;6244330;23;20003;-84
2023/09/23 00:39:21;;;;;;;12.73;11.43;;;14.70;99.90;;;;;;6245048;23;20012;-83
2023/09/23 00:41:47;;;;;;;11.63;10.60;;;13.90;99.90;;;;;;6244279;23;20000;-84
2023/09/23 00:44:13;;;;;;;12.98;11.75;;;14.90;99.90;;;;;;6245097;23;20019;-84
2023/09/23 00:46:44;;;;;;;13.65;12.20;;;13.60;99.90;;;;;;6244951;23;20044;-84
2023/09/23 00:49:10;;;;;;;;;;;13.90;99.90;;;;;;6248882;23;20015;-84
2023/09/23 00:51:37;;;;;;;14.10;12.80;;;14.70;99.90;;;;;;6249737;23;19903;-84
2023/09/23 00:54:13;;;;;;;13.48;12.18;;;13.80;99.90;;;;;;6245163;23;20023;-84
2023/09/23 00:56:39;;;;;;;14.90;13.50;;;13.80;99.90;;;;;;6243854;23;20075;-84
2023/09/23 00:59:07;;;;;;;14.85;13.43;;;14.10;99.90;;;;;;6245018;23;20023;-84
2023/09/23 01:01:33;;;;;;;14.55;13.05;;;14.60;99.90;;;;;;6244459;23;20420;-83
2023/09/23 01:03:59;;;;;;;15.05;13.68;;;13.70;99.90;;;;;;6244169;23;20114;-85
2023/09/23 01:06:28;;;;;;;16.17;14.52;;;14.50;99.90;;;;;;6245045;23;20000;-84
2023/09/23 01:08:54;;;;;;;15.27;13.88;;;13.70;99.90;;;;;;6244734;23;20009;-85
2023/09/23 01:11:21;;;;;;;16.95;13.98;;;14.00;99.90;;;;;;6243835;23;19992;-85
2023/09/23 01:13:51;;;;;;;15.48;13.98;;;13.70;99.90;;;;;;6244623;23;20004;-85
2023/09/23 01:16:17;;;;;;;15.93;13.98;;;13.70;99.90;;;;;;6244964;23;20000;-84
2023/09/23 01:18:46;;;;;;;15.10;13.68;;;13.70;99.90;;;;;;6243336;23;20062;-83
2023/09/23 01:21:12;;;;;;;15.43;12.95;;;13.70;99.90;;;;;;6244159;23;20382;-84
2023/09/23 01:23:38;;;;;;;14.77;13.18;;;13.70;99.90;;;;;;6244946;23;20000;-84
2023/09/23 01:26:04;;;;;;;14.00;12.70;;;13.70;99.90;;;;;;6244472;23;20432;-84
2023/09/23 01:28:32;;;;;;;20.15;15.50;;;13.70;99.90;;;;;;6244723;23;20094;-84
2023/09/23 01:30:59;;;;;;;15.35;13.40;;;14.00;99.90;;;;;;6244689;23;20000;-84
2023/09/23 01:33:26;;;;;;;13.90;12.38;;;13.70;99.90;;;;;;6245104;23;20037;-84
2023/09/23 01:35:55;;;;;;;16.30;14.63;;;13.80;99.90;;;;;;6244226;23;20000;-85
2023/09/23 01:38:21;;;;;;;14.65;13.18;;;13.60;99.90;;;;;;6244211;23;20008;-85
2023/09/23 01:40:47;;;;;;;16.50;14.77;;;14.40;99.90;;;;;;6244150;23;20062;-85
2023/09/23 01:43:12;;;;;;;15.68;14.02;;;14.20;99.90;;;;;;6244746;23;20366;-85
2023/09/23 01:45:38;;;;;;;15.02;13.50;;;14.00;99.90;;;;;;6243607;23;20015;-85
2023/09/23 01:48:04;;;;;;;19.00;15.32;;;13.60;99.90;;;;;;6244843;23;20015;-84
2023/09/23 01:50:29;;;;;;;15.02;13.52;;;13.60;99.90;;;;;;6244373;23;20079;-84
2023/09/23 01:52:59;;;;;;;15.82;13.88;;;13.60;99.90;;;;;;6253323;23;20347;-84
2023/09/23 01:55:25;;;;;;;14.45;13.00;;;13.60;99.90;;;;;;6244852;23;20008;-84
2023/09/23 01:57:51;;;;;;;14.10;12.80;;;13.90;99.90;;;;;;6243712;23;20426;-85
2023/09/23 02:00:26;;;;;;;13.77;12.43;;;14.50;99.90;;;;;;6243904;23;20015;-85
2023/09/23 02:02:55;;;;;;;14.13;12.73;;;13.60;99.90;;;;;;6244327;23;20514;-85
2023/09/23 02:05:24;;;;;;;14.93;12.07;;;13.50;99.90;;;;;;6244620;23;20006;-85
2023/09/23 02:07:50;;;;;;;13.93;12.07;;;14.20;99.90;;;;;;6243541;23;20378;-85
2023/09/23 02:10:21;;;;;;;12.35;11.23;;;13.60;99.90;;;;;;6245964;23;20000;-86
2023/09/23 02:12:47;;;;;;;13.10;11.73;;;14.20;99.90;;;;;;6246219;23;20011;-85
2023/09/23 02:15:16;;;;;;;14.25;12.55;;;13.60;99.90;;;;;;6245775;23;20024;-85
2023/09/23 02:17:43;;;;;;;13.60;11.73;;;13.70;99.90;;;;;;6245571;23;20015;-84
2023/09/23 02:20:20;;;;;;;12.55;11.30;;;13.70;99.90;;;;;;6246378;23;20019;-85
2023/09/23 02:22:47;;;;;;;14.52;11.75;;;13.70;99.90;;;;;;6246490;23;20142;-85
2023/09/23 02:25:13;;;;;;;11.88;10.70;;;13.70;99.90;;;;;;6245769;23;20302;-84
2023/09/23 02:27:40;;;;;;;12.80;10.63;;;13.80;99.90;;;;;;6244975;23;20004;-84
2023/09/23 02:30:09;;;;;;;10.73;9.63;;;13.70;99.90;;;;;;6246958;23;20074;-84
2023/09/23 02:32:38;;;;;;;12.93;11.23;;;13.70;99.90;;;;;;6246455;23;20020;-84
2023/09/23 02:35:06;;;;;;;12.07;10.88;;;13.80;99.90;;;;;;6245358;23;20089;-84
2023/09/23 02:37:33;;;;;;;12.23;11.10;;;13.70;99.90;;;;;;6246780;23;20007;-83
2023/09/23 02:39:58;;;;;;;11.75;10.55;;;13.70;99.90;;;;;;6246029;23;20072;-84
2023/09/23 02:42:24;;;;;;;13.50;11.43;;;13.60;99.90;;;;;;6245983;23;20004;-84
2023/09/23 02:44:49;;;;;;;13.38;11.43;;;14.80;99.90;;;;;;6245731;23;20015;-84
2023/09/23 02:47:16;;;;;;;14.60;11.30;;;13.80;99.90;;;;;;6246891;23;20004;-84
2023/09/23 02:49:44;;;;;;;12.93;10.90;;;13.60;99.90;;;;;;6245561;23;20027;-84
2023/09/23 02:52:10;;;;;;;14.45;11.05;;;13.50;99.90;;;;;;6248761;23;20056;-85
2023/09/23 02:54:35;;;;;;;11.68;10.55;;;13.50;99.90;;;;;;6257493;23;20007;-84
2023/09/23 02:57:01;;;;;;;17.77;12.70;;;13.50;99.90;;;;;;6249937;23;20004;-84
2023/09/23 02:59:31;;;;;;;13.80;10.98;;;13.60;99.90;;;;;;6246141;23;20429;-85
2023/09/23 03:01:57;;;;;;;13.53;11.73;;;13.40;99.90;;;;;;6246321;23;20051;-85
2023/09/23 03:04:23;;;;;;;12.68;11.07;;;13.80;99.90;;;;;;6245932;23;20072;-85
2023/09/23 03:06:53;;;;;;;13.60;11.70;;;13.40;99.90;;;;;;6246260;23;20027;-85
2023/09/23 03:09:25;;;;;;;12.70;11.05;;;14.60;99.90;;;;;;6246863;23;20066;-85
2023/09/23 03:11:55;;;;;;;12.02;10.80;;;13.50;99.90;;;;;;6245877;23;20023;-84
2023/09/23 03:14:35;;;;;;;;;;;13.50;99.90;;;;;;6246978;23;20004;-85
2023/09/23 03:17:07;;;;;;;12.25;10.93;;;13.50;99.90;;;;;;6246047;23;19906;-84
2023/09/23 03:19:33;;;;;;;15.43;10.95;;;13.60;99.90;;;;;;6245503;23;20061;-85
2023/09/23 03:22:00;;;;;;;13.02;10.00;;;13.60;99.90;;;;;;6246696;23;20008;-84
2023/09/23 03:24:28;;;;;;;12.23;10.32;;;13.80;99.90;;;;;;6245697;23;20004;-84
2023/09/23 03:26:55;;;;;;;16.17;9.95;;;13.50;99.90;;;;;;6245331;23;20370;-84
2023/09/23 03:29:22;;;;;;;13.25;9.40;;;13.70;99.90;;;;;;6246953;23;20000;-86
2023/09/23 03:31:48;;;;;;;9.70;8.70;;;12.60;99.90;;;;;;6245071;23;20007;-85
2023/09/23 03:34:14;;;;;;;12.93;8.48;;;13.60;99.90;;;;;;6246644;23;20038;-84
2023/09/23 03:36:44;;;;;;;13.20;8.95;;;13.60;99.90;;;;;;6245571;23;20007;-84
2023/09/23 03:39:10;;;;;;;11.83;8.30;;;13.50;99.90;;;;;;6245380;23;20117;-85
2023/09/23 03:41:37;;;;;;;12.43;8.30;;;13.80;99.90;;;;;;6245600;23;20028;-84
2023/09/23 03:44:04;;;;;;;12.38;8.23;;;14.40;99.90;;;;;;6246244;23;20000;-85
2023/09/23 03:46:30;;;;;;;8.77;7.95;;;13.50;99.90;;;;;;6245372;23;20316;-85
2023/09/23 03:48:56;;;;;;;14.43;8.50;;;13.50;99.90;;;;;;6219285;23;20050;-85
2023/09/23 03:51:21;;;;;;;12.25;7.88;;;13.50;99.90;;;;;;6245745;23;20298;-85
2023/09/23 03:53:48;;;;;;;16.15;7.82;;;13.50;99.90;;;;;;6245285;23;20242;-85
2023/09/23 03:56:29;;;;;;;15.70;8.57;;;13.80;99.90;;;;;;6248755;23;20328;-85
2023/09/23 03:58:56;;;;;;;11.80;7.38;;;14.20;99.90;;;;;;6248760;23;20086;-84
2023/09/23 04:01:36;;;;;;;11.65;7.30;;;13.60;99.90;;;;;;6245815;23;20039;-85
2023/09/23 04:04:11;;;;;;;13.85;8.10;;;13.80;99.90;;;;;;6246348;23;20004;-84
2023/09/23 04:06:36;;;;;;;10.15;8.05;;;13.50;99.90;;;;;;6244485;23;20019;-85
2023/09/23 04:09:17;;;;;;;11.75;7.55;;;14.80;99.90;;;;;;6246056;23;20004;-85
2023/09/23 04:12:05;;;;;;;10.35;7.75;;;13.60;99.90;;;;;;6245207;23;20004;-85
2023/09/23 04:14:30;;;;;;;17.90;8.77;;;13.50;99.90;;;;;;6244954;23;20028;-85
2023/09/23 04:17:17;;;;;;;13.20;8.60;;;14.70;99.90;;;;;;6246127;23;20054;-85
2023/09/23 04:19:42;;;;;;;13.90;7.80;;;13.90;99.90;;;;;;6184515;23;20032;-85
2023/09/23 04:22:08;;;;;;;13.05;7.78;;;13.50;99.90;;;;;;6183839;23;20005;-84
2023/09/23 04:24:48;;;;;;;10.13;7.93;;;14.50;99.90;;;;;;6184335;23;20001;-84
2023/09/23 04:27:14;;;;;;;20.42;8.05;;;13.40;99.90;;;;;;6184627;23;20013;-84
2023/09/23 04:29:50;;;;;;;14.05;7.97;;;14.70;99.90;;;;;;6184006;23;20060;-83
2023/09/23 04:32:15;;;;;;;16.23;8.68;;;14.40;99.90;;;;;;6181928;23;20005;-84
2023/09/23 04:34:41;;;;;;;13.15;7.13;;;13.50;99.90;;;;;;6183888;23;20081;-85
2023/09/23 04:37:07;;;;;;;12.85;7.63;;;12.60;99.90;;;;;;6185276;23;20300;-84
2023/09/23 04:39:48;;;;;;;19.92;8.10;;;14.40;99.90;;;;;;6184771;23;20032;-85
2023/09/23 04:42:14;;;;;;;;;;;13.40;99.90;;;;;;6184968;23;20005;-84
2023/09/23 04:44:41;;;;;;;8.25;7.15;;;14.50;99.90;;;;;;6184616;23;20328;-84
2023/09/23 04:47:17;;;;;;;8.77;7.18;;;13.50;99.90;;;;;;6185264;23;20009;-84
2023/09/23 04:49:43;;;;;;;9.65;7.07;;;13.70;99.90;;;;;;6183352;23;20001;-84
2023/09/23 04:52:21;;;;;;;8.05;6.70;;;13.50;99.90;;;;;;6185125;23;20088;-84
2023/09/23 04:54:53;;;;;;;8.88;6.72;;;13.50;99.90;;;;;;6184742;23;20076;-84
2023/09/23 04:57:24;;;;;;;10.52;6.55;;;13.50;99.90;;;;;;6179944;23;20460;-84
2023/09/23 04:59:54;;;;;;;14.32;7.40;;;14.80;99.90;;;;;;6186045;23;20020;-84
2023/09/23 05:02:29;;;;;;;10.65;6.47;;;14.10;99.90;;;;;;6178204;23;20351;-84
2023/09/23 05:04:55;;;;;;;9.23;6.15;;;13.90;99.90;;;;;;6184814;23;20445;-84
2023/09/23 05:07:21;;;;;;;10.13;5.85;;;14.80;99.90;;;;;;6184829;23;20004;-83
2023/09/23 05:10:05;;;;;;;7.32;5.32;;;14.10;99.90;;;;;;6183845;23;20008;-84
2023/09/23 05:12:31;;;;;;;8.40;5.25;;;14.30;99.90;;;;;;6185117;23;20005;-84
2023/09/23 05:15:18;;;;;;;10.40;5.95;;;14.40;99.90;;;;;;6184428;23;20434;-84
2023/09/23 05:18:08;;;;;;;6.93;6.07;;;14.40;99.90;;;;;;6193071;23;20078;-84
2023/09/23 05:20:34;;;;;;;10.93;5.57;;;12.70;99.90;;;;;;6244741;23;20038;-83
2023/09/23 05:23:05;;;;;;;9.93;6.50;;;13.30;99.90;;;;;;6244532;23;20004;-84
2023/09/23 05:25:31;;;;;;;10.05;6.53;;;13.20;99.90;;;;;;6237762;23;20040;-85
2023/09/23 05:27:57;;;;;;;7.22;6.45;;;13.20;99.90;;;;;;6244388;23;20007;-85
2023/09/23 05:30:26;;;;;;;11.50;6.07;;;13.20;99.90;;;;;;6242495;23;20008;-84
2023/09/23 05:32:52;;;;;;;9.30;5.68;;;13.20;99.90;;;;;;6242783;23;20437;-85
2023/09/23 05:35:18;;;;;;;9.07;6.07;;;13.10;99.90;;;;;;6242977;23;20011;-85
2023/09/23 05:37:44;;;;;;;9.35;5.53;;;13.10;99.90;;;;;;6242729;23;20050;-85
2023/09/23 05:40:36;;;;;;;12.50;7.18;;;13.10;99.90;;;;;;6242785;23;20023;-85
2023/09/23 05:42:56;;;;;;;10.05;5.75;;;13.10;99.90;;;;;;6242663;23;20091;-85
2023/09/23 05:45:25;;;;;;;10.27;5.75;;;13.10;99.90;;;;;;6246086;23;20028;-85
2023/09/23 05:47:52;;;;;;;11.13;6.35;;;13.10;99.90;;;;;;6246898;23;19992;-85
2023/09/23 05:50:20;;;;;;;9.57;6.43;;;13.50;99.90;;;;;;6247146;23;20005;-85
2023/09/23 05:52:46;;;;;;;14.60;6.75;;;13.10;99.90;;;;;;6245047;23;20379;-85
2023/09/23 05:55:21;;;;;;;11.38;6.20;;;11.90;99.90;;;;;;6246016;23;20087;-85
2023/09/23 05:57:46;;;;;;;13.88;6.03;;;13.10;99.90;;;;;;6245944;23;20001;-86
2023/09/23 06:00:15;;;;;;;11.43;6.13;;;13.40;99.90;;;;;;6245803;23;20384;-85
2023/09/23 06:02:41;;;;;;;9.90;5.45;;;13.10;99.90;;;;;;6251740;23;20451;-85
2023/09/23 06:05:07;;;;;;;9.77;6.47;;;14.50;99.90;;;;;;6245996;23;20004;-86
2023/09/23 06:07:33;;;;;;;13.07;5.70;;;14.30;99.90;;;;;;6218447;23;20376;-85
2023/09/23 06:10:10;;;;;;;12.98;6.38;;;14.50;99.90;;;;;;6245533;23;20012;-86
2023/09/23 06:12:36;;;;;;;10.70;6.07;;;13.10;99.90;;;;;;6245939;23;20000;-85
2023/09/23 06:15:10;;;;;;;11.63;6.00;;;14.00;99.90;;;;;;6246231;23;20336;-86
2023/09/23 06:17:37;;;;;;;12.40;6.90;;;13.20;99.90;;;;;;6246039;23;20011;-85
2023/09/23 06:20:03;;;;;;;9.82;5.90;;;14.30;99.90;;;;;;6245429;23;20035;-85
2023/09/23 06:22:32;;;;;;;10.98;6.20;;;13.20;99.90;;;;;;6246655;23;20332;-86
2023/09/23 06:24:58;;;;;;;9.43;5.82;;;14.10;99.90;;;;;;6246534;23;20044;-87
2023/09/23 06:27:23;;;;;;;9.25;5.65;;;14.20;99.90;;;;;;6246067;23;20003;-86
2023/09/23 06:29:49;;;;;;;9.68;5.43;;;14.00;99.90;;;;;;6246094;23;20054;-86
2023/09/23 06:32:15;;;;;;;9.45;5.70;;;13.70;99.90;;;;;;6246370;23;20310;-86
2023/09/23 06:34:48;;;;;;;10.60;6.18;;;13.60;99.90;;;;;;6245543;23;20031;-86
2023/09/23 06:37:13;;;;;;;10.65;6.22;;;12.60;99.90;;;;;;6246363;23;20079;-86
2023/09/23 06:39:45;;;;;;;8.82;6.50;;;13.80;99.90;;;;;;6245794;23;20078;-86
2023/09/23 06:42:19;;;;;;;9.20;6.00;;;13.70;99.90;;;;;;6246625;23;20440;-86
2023/09/23 06:44:45;;;;;;;10.63;6.13;;;13.20;99.90;;;;;;6247038;23;20004;-87
2023/09/23 06:47:11;;;;;;;7.20;5.75;;;14.70;99.90;;;;;;6247953;23;20008;-84
2023/09/23 06:49:38;;;;;;;9.23;5.70;;;14.00;99.90;;;;;;6246977;23;20008;-85
2023/09/23 06:52:04;;;;;;;8.48;5.22;;;13.90;99.90;;;;;;6248097;23;20004;-85
2023/09/23 06:54:29;;;;;;;9.65;6.13;;;13.90;99.90;;;;;;6245918;23;20004;-85
2023/09/23 06:56:55;;;;;;;10.57;6.22;;;13.30;99.90;;;;;;6245262;23;20012;-84
2023/09/23 06:59:21;;;;;;;10.68;5.40;;;14.30;99.90;;;;;;6244716;23;20046;-84
2023/09/23 07:01:46;;;;;;;11.90;5.80;;;13.80;99.90;;;;;;6244669;23;20421;-85
2023/09/23 07:04:12;;;;;;;10.85;5.65;;;13.60;99.90;;;;;;6246188;23;20035;-85
2023/09/23 07:06:41;;;;;;;8.52;5.15;;;13.30;99.90;;;;;;6247998;23;20004;-85
2023/09/23 07:09:07;;;;;;;12.00;5.78;;;14.80;99.90;;;;;;6245642;23;19996;-85
2023/09/23 07:11:33;;;;;;;14.90;6.65;;;14.10;99.90;;;;;;6246610;23;20004;-85
2023/09/23 07:14:00;;;;;;;8.85;5.57;;;13.70;99.90;;;;;;6247002;23;20055;-85
2023/09/23 07:16:26;;;;;;;6.97;4.53;;;13.40;99.90;;;;;;6245654;23;20012;-86
2023/09/23 07:18:52;;;;;;;11.60;5.75;;;13.80;99.90;;;;;;6245552;23;20510;-85
2023/09/23 07:21:18;;;;;;;8.60;5.10;;;14.00;99.90;;;;;;6245960;23;20011;-85
2023/09/23 07:23:44;;;;;;;7.57;5.05;;;14.10;99.90;;;;;;6245030;23;20049;-85
2023/09/23 07:26:09;;;;;;;7.47;4.80;;;14.60;99.90;;;;;;6246081;23;20081;-85
2023/09/23 07:28:35;;;;;;;7.22;4.80;;;14.10;99.90;;;;;;6245154;23;20007;-85
2023/09/23 07:31:01;;;;;;;9.57;5.22;;;14.60;99.90;;;;;;6244902;23;20004;-84
2023/09/23 07:33:27;;;;;;;8.88;4.40;;;13.70;99.90;;;;;;6245677;23;20000;-85
2023/09/23 07:35:53;;;;;;;6.57;4.82;;;14.60;99.90;;;;;;6245431;23;20008;-85
2023/09/23 07:38:19;;;;;;;10.40;5.75;;;13.70;99.90;;;;;;6244574;23;20053;-85
2023/09/23 07:40:44;;;;;;;9.25;4.70;;;15.00;99.90;;;;;;6245839;23;20008;-85
2023/09/23 07:43:10;;;;;;;7.45;4.00;;;13.80;99.90;;;;;;6246092;23;20324;-85
2023/09/23 07:45:36;;;;;;;5.22;4.03;;;15.20;99.90;;;;;;6244755;23;20004;-84
2023/09/23 07:48:02;;;;;;;6.85;4.43;;;12.80;99.90;;;;;;6246022;23;20413;-84
2023/09/23 07:50:28;;;;;;;5.30;4.18;;;14.30;99.90;;;;;;6245403;23;20050;-84
2023/09/23 07:52:53;;;;;;;8.40;4.90;;;14.80;99.90;;;;;;6244786;23;20004;-83
2023/09/23 07:55:19;;;;;;;7.82;5.03;;;13.90;99.90;;;;;;6245620;23;20058;-83
2023/09/23 07:57:44;;;;;;;6.38;5.00;;;13.90;99.90;;;;;;6245155;23;20030;-83
2023/09/23 08:00:11;;;;;;;8.77;4.50;;;13.90;99.90;;;;;;6244243;23;20016;-84
2023/09/23 08:02:36;;;;;;;7.45;4.32;;;13.90;99.90;;;;;;6245543;23;20004;-83
2023/09/23 08:05:03;;;;;;;10.60;4.55;;;13.90;99.90;;;;;;6244086;23;20008;-83
2023/09/23 08:07:30;;;;;;;6.35;3.95;;;13.90;99.90;;;;;;6247811;23;20008;-83
2023/09/23 08:09:56;;;;;;;12.15;4.65;;;13.90;99.90;;;;;;6246784;23;20004;-81
2023/09/23 08:12:22;;;;;;;8.52;3.53;;;14.30;99.90;;;;;;6244534;23;20050;-82
2023/09/23 08:14:47;;;;;;;7.45;3.85;;;13.90;99.90;;;;;;6244449;23;20325;-83
2023/09/23 08:17:14;;;;;;;8.77;3.15;;;13.90;99.90;;;;;;6244315;23;20008;-83
2023/09/23 08:19:40;;;;;;;11.23;3.50;;;13.90;99.90;;;;;;6243153;23;20452;-82
2023/09/23 08:22:06;;;;;;;7.30;3.67;;;14.70;99.90;;;;;;6244184;23;20146;-82
2023/09/23 08:24:32;;;;;;;10.43;3.55;;;15.00;99.90;;;;;;6245259;23;20000;-85
2023/09/23 08:26:58;;;;;;;6.72;3.65;;;13.90;99.90;;;;;;6240840;23;20083;-84
2023/09/23 08:29:24;;;;;;;7.40;3.35;;;15.00;99.90;;;;;;6245609;23;20004;-80
2023/09/23 08:31:50;;;;;;;9.70;3.42;;;14.00;99.90;;;;;;6244284;23;20019;-80
2023/09/23 08:34:17;;;;;;;14.45;4.03;;;14.10;99.90;;;;;;6244341;23;20130;-81
2023/09/23 08:36:43;;;;;;;4.22;2.35;;;14.10;99.90;;;;;;6242909;23;20011;-83
2023/09/23 08:39:09;;;;;;;6.90;3.53;;;14.90;99.90;;;;;;6242852;23;19996;-84
2023/09/23 08:41:36;;;;;;;6.15;3.20;;;14.60;99.90;;;;;;6242104;23;20008;-84
2023/09/23 08:44:05;;;;;;;10.25;2.95;;;14.20;99.90;;;;;;6241544;23;20000;-84
2023/09/23 08:46:32;;;;;;;8.73;3.42;;;14.20;99.90;;;;;;6240508;23;20004;-85
2023/09/23 08:49:01;;;;;;;7.63;3.22;;;14.30;99.90;;;;;;6240041;23;20429;-84
2023/09/23 08:51:30;;;;;;;9.95;3.25;;;14.40;99.90;;;;;;6242413;23;20429;-85
2023/09/23 08:53:56;;;;;;;8.75;3.30;;;14.40;99.90;;;;;;6242921;23;20327;-85
2023/09/23 08:56:22;;;;;;;6.13;2.80;;;14.40;99.90;;;;;;6241677;23;20003;-85
2023/09/23 08:58:50;;;;;;;6.78;3.10;;;14.40;99.90;;;;;;6244111;23;20009;-82
2023/09/23 09:01:17;;;;;;;6.55;2.78;;;14.50;99.90;;;;;;6243936;23;20012;-82
2023/09/23 09:03:44;;;;;;;7.93;2.90;;;14.50;99.90;;;;;;6245179;23;20004;-84
2023/09/23 09:06:21;;;;;;;9.00;2.90;;;14.50;99.90;;;;;;6245136;23;20302;-84
2023/09/23 09:08:47;;;;;;;7.40;2.70;;;14.60;99.90;;;;;;6244718;23;20001;-84
2023/09/23 09:11:21;;;;;;;5.95;2.75;;;14.60;99.90;;;;;;6254587;23;20491;-84
2023/09/23 09:13:47;;;;;;;9.80;2.88;;;14.80;99.90;;;;;;6247947;23;20016;-85
2023/09/23 09:16:13;;;;;;;8.35;3.05;;;14.70;99.90;;;;;;6244153;23;20004;-85
2023/09/23 09:18:38;;;;;;;9.15;3.15;;;14.80;99.90;;;;;;6244518;23;20215;-85
2023/09/23 09:21:08;;;;;;;5.25;2.78;;;14.80;99.90;;;;;;6244722;23;20458;-85
2023/09/23 09:23:36;;;;;;;9.15;2.58;;;15.00;99.90;;;;;;6244380;23;20004;-84
2023/09/23 09:26:02;;;;;;;6.72;2.78;;;15.40;99.90;;;;;;6244979;23;20050;-85
2023/09/23 09:28:30;;;;;;;6.60;2.88;;;14.80;99.90;;;;;;6242373;23;20004;-85
2023/09/23 09:30:56;;;;;;;6.80;2.97;;;15.40;99.90;;;;;;6242281;23;20044;-85
2023/09/23 09:33:27;;;;;;;7.88;2.38;;;15.90;99.90;;;;;;6241927;23;20333;-84
2023/09/23 09:35:56;;;;;;;5.93;2.78;;;16.00;99.90;;;;;;6242636;23;20001;-85
2023/09/23 09:38:25;;;;;;;7.88;2.67;;;15.90;99.90;;;;;;6243166;23;20075;-86
2023/09/23 09:41:04;;;;;;;6.72;2.38;;;15.10;99.90;;;;;;6243152;23;20019;-85
2023/09/23 09:43:33;;;;;;;5.65;2.35;;;15.10;99.90;;;;;;6242463;23;20003;-85
2023/09/23 09:46:08;;;;;;;3.97;2.15;;;15.50;99.90;;;;;;6243836;23;20008;-85
2023/09/23 09:48:38;;;;;;;3.20;1.60;;;15.30;99.90;;;;;;6244217;23;20000;-86
2023/09/23 09:51:06;;;;;;;5.13;1.80;;;15.20;99.90;;;;;;6241428;23;20011;-84
2023/09/23 09:53:41;;;;;;;4.80;1.85;;;15.20;99.90;;;;;;6241628;22;20012;-84
2023/09/23 09:56:07;;;;;;;10.50;2.47;;;15.70;99.90;;;;;;6242661;23;20008;-85
2023/09/23 09:59:00;;;;;;;7.80;2.40;;;15.70;99.90;;;;;;6242873;23;20000;-86
2023/09/23 10:01:25;;;;;;;6.75;1.60;;;15.20;99.90;;;;;;6245119;23;20016;-83
2023/09/23 10:03:53;;;;;;;4.47;1.40;;;16.00;99.90;;;;;;6243172;23;20049;-86
2023/09/23 10:06:22;;;;;;;3.50;1.20;;;15.30;99.90;;;;;;6242361;23;20417;-85
2023/09/23 10:08:49;;;;;;;3.00;1.63;;;15.20;99.90;;;;;;6243943;23;20333;-84
2023/09/23 10:11:16;;;;;;;4.57;2.03;;;15.20;99.90;;;;;;6243901;23;20004;-85
2023/09/23 10:14:16;;;;;;;4.82;2.08;;;15.30;99.90;;;;;;6247726;23;19997;-84
2023/09/23 10:16:48;;;;;;;2.83;1.55;;;15.20;99.90;;;;;;6236021;23;20002;-86
2023/09/23 10:19:15;;;;;;;4.28;1.67;;;15.10;99.90;;;;;;6243473;22;20036;-85
2023/09/23 10:22:02;;;;;;;3.17;1.40;;;15.20;99.90;;;;;;6240796;23;20008;-84
2023/09/23 10:24:37;;;;;;;2.60;1.48;;;15.90;99.90;;;;;;6244388;23;20452;-86
2023/09/23 10:27:21;;;;;;;2.58;1.40;;;15.10;99.90;;;;;;6243245;23;20027;-85
2023/09/23 10:30:03;;;;;;;3.70;1.48;;;15.70;99.90;;;;;;6244326;23;20008;-85
2023/09/23 10:32:43;;;;;;;3.47;1.55;;;16.10;99.90;;;;;;6245605;23;20071;-84
2023/09/23 10:35:26;;;;;;;5.45;2.15;;;16.00;99.90;;;;;;6247279;23;20004;-83
2023/09/23 10:38:01;;;;;;;2.47;1.60;;;15.00;99.90;;;;;;6245669;23;20004;-85
2023/09/23 10:40:52;;;;;;;4.25;2.17;;;15.80;99.90;;;;;;6245883;23;20016;-85
2023/09/23 10:43:34;;;;;;;4.28;1.65;;;14.90;99.90;;;;;;6245843;23;20031;-84
2023/09/23 10:46:18;;;;;;;3.90;1.73;;;15.50;99.90;;;;;;6246531;23;20317;-85
2023/09/23 10:48:44;;;;;;;2.30;1.55;;;15.00;99.90;;;;;;6245426;23;20431;-85
2023/09/23 10:51:16;;;;;;;3.67;1.90;;;15.90;99.90;;;;;;6246720;23;20057;-85
2023/09/23 10:53:42;;;;;;;2.25;1.50;;;15.70;99.90;;;;;;6245408;23;20005;-85
2023/09/23 10:56:10;;;;;;;3.58;1.48;;;15.10;99.90;;;;;;6244650;23;20004;-85
2023/09/23 10:58:39;;;;;;;3.80;2.05;;;15.20;99.90;;;;;;6244605;23;20000;-88
2023/09/23 11:01:18;;;;;;;6.65;1.70;;;16.10;99.90;;;;;;6245819;23;20071;-88
2023/09/23 11:03:51;;;;;;;5.97;2.08;;;16.80;99.90;;;;;;6246591;23;20004;-88
2023/09/23 11:06:35;;;;;;;8.57;2.03;;;16.60;99.90;;;;;;6246561;23;20000;-86
2023/09/23 11:09:01;;;;;;;6.25;1.60;;;15.30;99.90;;;;;;6245323;23;20341;-86
2023/09/23 11:11:27;;;;;;;9.93;1.58;;;14.80;99.90;;;;;;6245065;23;20000;-85
2023/09/23 11:14:11;;;;;;;4.93;1.63;;;15.80;99.90;;;;;;6245656;23;20001;-86
2023/09/23 11:16:36;;;;;;;5.18;1.63;;;15.40;99.90;;;;;;6261421;23;20012;-88
2023/09/23 11:19:08;;;;;;;2.83;1.35;;;16.10;99.90;;;;;;6256154;23;20400;-88
2023/09/23 11:21:44;;;;;;;5.28;1.27;;;15.40;99.90;;;;;;6246699;23;20008;-88
2023/09/23 11:24:10;;;;;;;9.07;1.80;;;16.40;99.90;;;;;;6245456;23;20361;-86
2023/09/23 11:26:39;;;;;;;1.92;1.15;;;16.20;99.90;;;;;;6246437;23;20061;-85
2023/09/23 11:29:06;;;;;;;3.22;1.00;;;15.40;99.90;;;;;;6245944;23;20010;-87
2023/09/23 11:31:40;;;;;;;2.90;1.52;;;15.60;99.90;;;;;;6246100;23;20007;-87
2023/09/23 11:34:06;;;;;;;3.75;1.20;;;15.40;99.90;;;;;;6246446;23;20475;-87
2023/09/23 11:36:33;;;;;;;2.75;1.15;;;16.10;99.90;;;;;;6244751;23;19997;-86
2023/09/23 11:39:00;;;;;;;2.55;1.20;;;15.40;99.90;;;;;;6246219;23;20013;-86
2023/09/23 11:41:25;;;;;;;3.85;1.42;;;16.30;99.90;;;;;;6245800;23;20023;-86
2023/09/23 11:43:51;;;;;;;11.60;2.20;;;16.40;99.90;;;;;;6245269;23;20477;-86
2023/09/23 11:46:19;;;;;;;2.85;1.48;;;15.40;99.90;;;;;;6245525;23;20074;-86
2023/09/23 11:48:48;;;;;;;3.95;1.05;;;15.50;99.90;;;;;;6246088;23;20008;-86
2023/09/23 11:51:18;;;;;;;6.97;1.40;;;15.90;99.90;;;;;;6245719;23;20000;-87
2023/09/23 11:53:55;;;;;;;3.30;1.15;;;15.90;99.90;;;;;;6245736;23;20061;-87
2023/09/23 11:56:27;;;;;;;5.30;1.50;;;15.40;99.90;;;;;;6246070;23;20094;-86
2023/09/23 11:59:11;;;;;;;4.85;1.30;;;15.40;99.90;;;;;;6244471;23;20417;-87
2023/09/23 12:01:37;;;;;;;3.47;1.17;;;15.20;99.90;;;;;;6245051;23;20043;-86
2023/09/23 12:04:24;;;;;;;4.05;1.13;;;15.40;99.90;;;;;;6245020;22;20000;-87
2023/09/23 12:07:02;;;;;;;3.70;1.23;;;15.40;99.90;;;;;;6213424;23;20345;-89
2023/09/23 12:09:28;;;;;;;4.93;1.10;;;16.20;99.90;;;;;;6219055;23;20011;-88
2023/09/23 12:12:04;;;;;;;3.70;1.30;;;16.70;99.90;;;;;;6237306;22;20009;-86
2023/09/23 12:14:30;;;;;;;1.45;1.08;;;15.60;99.90;;;;;;6216306;23;20000;-87
2023/09/23 12:16:55;;;;;;;2.60;1.25;;;17.00;99.90;;;;;;6215238;23;20461;-86
2023/09/23 12:19:21;;;;;;;2.92;1.25;;;16.20;99.90;;;;;;6221624;23;20046;-86
2023/09/23 12:21:56;;;;;;;1.65;1.20;;;15.70;99.90;;;;;;6217880;23;20001;-86
2023/09/23 12:24:21;;;;;;;3.53;1.15;;;16.90;99.90;;;;;;6217455;23;20005;-88
2023/09/23 12:26:47;;;;;;;3.92;1.05;;;15.90;99.90;;;;;;6219187;23;20015;-87
2023/09/23 12:29:12;;;;;;;3.20;1.40;;;16.20;99.90;;;;;;6218471;23;20008;-87
2023/09/23 12:31:47;;;;;;;3.95;1.48;;;15.80;99.90;;;;;;6211016;23;20004;-88
2023/09/23 12:34:12;;;;;;;3.72;1.23;;;15.80;99.90;;;;;;6215891;23;20080;-88
2023/09/23 12:36:38;;;;;;;3.10;1.05;;;16.10;99.90;;;;;;6215209;23;20090;-87
2023/09/23 12:39:03;;;;;;;7.07;1.75;;;15.70;99.90;;;;;;6213875;23;20015;-86
2023/09/23 12:41:29;;;;;;;4.05;1.75;;;15.70;99.90;;;;;;6213830;23;20019;-86
2023/09/23 12:43:54;;;;;;;8.27;1.75;;;16.70;99.90;;;;;;6215296;23;20071;-86
2023/09/23 12:46:21;;;;;;;2.78;1.70;;;16.90;99.90;;;;;;6214599;23;20005;-86
2023/09/23 12:48:47;;;;;;;3.33;1.48;;;15.90;99.90;;;;;;6214894;23;20055;-86
2023/09/23 12:51:13;;;;;;;5.93;1.92;;;16.00;99.90;;;;;;6215434;23;20005;-87